• Join FlightAware (Why Join?)
  • Login
  • US Flag 
01:57PM EDT


 

Airport Tracker/Info


-or-


 

Live Flight TrackerFlight Track Log ✈ N8077J ✈ 01-Sep-2013 ✈ KBLV - KHQZ

Flight Track Log - Related Links

Times and Time Zones

All times are in EDT time to prevent confusion due to time zone crossing. See the N8077J flight status page for this flight to view local times or setup timezone preferences in your user account.

Time Position Orientation Groundspeed Altitude Reporting Facility
EDT Latitude Longitude Course Direction KTS MPH feet Rate Location/Type
11:46AM 38.5167 -89.8333 293° West 103 119 2,100  Level Gateway (St. Louis) TRACON
11:47AM 38.5000 -89.8667 237° Southwest 93 107 3,000 840 Climbing Gateway (St. Louis) TRACON
11:47AM 38.4833 -89.8833 218° Southwest 92 106 3,800 840 Climbing Gateway (St. Louis) TRACON
11:48AM 38.4667 -89.9167 237° Southwest 89 102 4,600 780 Climbing Gateway (St. Louis) TRACON
11:49AM 38.4500 -89.9333 218° Southwest 94 108 5,400 660 Climbing Gateway (St. Louis) TRACON
11:50AM 38.4500 -89.9667 270° West 89 102 6,000 660 Climbing Gateway (St. Louis) TRACON
11:51AM 38.6677 -90.1032 293° West  Level FlightAware Approximate
11:51AM 38.4333 -90.0000 237° Southwest 90 104 6,800  Level Gateway (St. Louis) TRACON
11:52AM 38.4167 -90.0167 218° Southwest 89 102 7,400 600 Climbing Gateway (St. Louis) TRACON
11:53AM 38.4000 -90.0500 237° Southwest 94 108 8,000 540 Climbing Gateway (St. Louis) TRACON
11:54AM 38.4000 -90.0833 270° West 94 108 8,600 540 Climbing Gateway (St. Louis) TRACON
11:55AM 38.3833 -90.1000 218° Southwest 94 108 9,200 540 Climbing Gateway (St. Louis) TRACON
11:56AM 38.3667 -90.1333 237° Southwest 96 110 9,700 360 Climbing Gateway (St. Louis) TRACON
11:57AM 38.3500 -90.1667 237° Southwest 103 119 10,000 180 Climbing Gateway (St. Louis) TRACON
11:58AM 38.3333 -90.2000 237° Southwest 124 143 10,100  Climbing Gateway (St. Louis) TRACON
11:59AM 38.3167 -90.2500 247° West 142 163 10,100  Level Gateway (St. Louis) TRACON
12:00PM 38.3000 -90.2833 238° Southwest 139 160 10,100  Level Gateway (St. Louis) TRACON
12:02PM 38.2644 -90.3358 229° Southwest 140 161 10,100  Level Kansas City Center
12:03PM 38.2364 -90.3714 225° Southwest 142 163 10,100 -60 Level Kansas City Center
12:04PM 38.2097 -90.4064 226° Southwest 139 160 10,000 -60 Descending Kansas City Center
12:05PM 38.1756 -90.4481 224° Southwest 141 162 10,000  Level Kansas City Center
12:06PM 38.1483 -90.4806 223° Southwest 137 158 10,000  Level Kansas City Center
12:07PM 38.1219 -90.5142 225° Southwest 135 155 10,100  Climbing Kansas City Center
12:08PM 38.0928 -90.5481 222° Southwest 139 160 10,100  Level Kansas City Center
12:09PM 38.0664 -90.5828 226° Southwest 139 160 10,100  Level Kansas City Center
12:10PM 38.0369 -90.6172 223° Southwest 141 162 10,100  Level Kansas City Center
12:11PM 38.0094 -90.6517 225° Southwest 140 161 10,100  Level Kansas City Center
12:12PM 37.9828 -90.6850 225° Southwest 137 158 10,100  Level Kansas City Center
12:13PM 37.9544 -90.7192 224° Southwest 139 160 10,100 -60 Level Kansas City Center
12:14PM 37.9253 -90.7542 223° Southwest 142 163 10,000 -60 Descending Kansas City Center
12:15PM 37.8892 -90.7908 219° Southwest 139 160 10,000  Level Kansas City Center
12:16PM 37.8550 -90.8169 211° Southwest 142 163 10,000  Level Kansas City Center
12:17PM 37.8189 -90.8381 205° Southwest 143 165 10,000  Level Kansas City Center
12:18PM 37.7878 -90.8642 214° Southwest 138 159 10,000  Level Kansas City Center
12:19PM 37.7619 -90.9003 228° Southwest 137 158 10,000  Level Kansas City Center
12:20PM 37.7308 -90.9275 215° Southwest 135 155 10,000  Level Kansas City Center
12:21PM 37.6942 -90.9500 206° Southwest 143 165 10,000  Level Kansas City Center
12:22PM 37.6589 -90.9708 205° Southwest 141 162 10,000  Level Kansas City Center
12:23PM 37.6169 -90.9950 205° Southwest 140 161 10,000  Level Kansas City Center
12:24PM 37.5778 -91.0075 194° South 141 162 10,000  Level Kansas City Center
12:25PM 37.5389 -91.0169 191° South 143 165 10,000  Level Kansas City Center
12:26PM 37.4994 -91.0272 192° South 142 163 10,000  Level Kansas City Center
12:27PM 37.4578 -91.0372 191° South 145 167 10,000  Level Kansas City Center
12:28PM 37.4164 -91.0475 191° South 148 170 10,000  Level Kansas City Center
12:29PM 37.3742 -91.0544 187° South 150 173 10,000  Level Kansas City Center
12:30PM 37.3328 -91.0631 189° South 151 174 10,000  Level Kansas City Center
12:32PM 37.2908 -91.0719 190° South 151 174 10,000  Level Kansas City Center
12:33PM 37.2517 -91.0781 187° South 147 169 10,000  Level Kansas City Center
12:34PM 37.2092 -91.0808 183° South 150 173 10,000  Level Kansas City Center
12:35PM 37.1675 -91.0753 174° South 151 174 10,000  Level Kansas City Center
12:36PM 37.1164 -91.0686 174° South 153 176 10,000  Level Kansas City Center
12:37PM 37.0728 -91.0664 178° South 156 180 10,100  Climbing Kansas City Center
12:38PM 37.0300 -91.0600 173° South 158 182 10,100  Level Kansas City Center
12:39PM 36.9906 -91.0547 174° South 148 170 10,100  Level Kansas City Center
12:40PM 36.9450 -91.0503 176° South 157 181 10,100  Level Kansas City Center
12:41PM 36.9000 -91.0456 175° South 160 184 10,100  Level Kansas City Center
12:42PM 36.8572 -91.0397 174° South 158 182 10,100  Level Kansas City Center
12:43PM 36.8147 -91.0469 188° South 166 191 10,100  Level Kansas City Center
12:44PM 36.7811 -91.0669 205° Southwest 143 165 10,100 60 Level Kansas City Center
12:45PM 36.7344 -91.0811 194° South 145 167 10,300 300 Climbing Kansas City Center
12:46PM 36.7006 -91.0903 192° South 134 154 10,800 420 Climbing Kansas City Center
12:47PM 36.6700 -91.0972 190° South 118 136 11,200 420 Climbing Kansas City Center
12:48PM 36.6378 -91.1069 194° South 118 136 11,700 360 Climbing Kansas City Center
12:49PM 36.6056 -91.1178 195° South 118 136 12,000 180 Climbing Kansas City Center
12:50PM 36.5672 -91.1303 195° South 126 145 12,100  Climbing Kansas City Center
12:51PM 36.5319 -91.1456 199° South 136 157 12,100  Level Kansas City Center
12:52PM 36.4908 -91.1597 195° South 144 166 12,100 -60 Level Kansas City Center
12:53PM 36.4372 -91.1850 201° Southwest 167 192 12,000 -60 Descending Memphis Center
12:54PM 36.4039 -91.2131 214° Southwest 155 178 12,000  Level Memphis Center
12:55PM 36.3661 -91.2408 211° Southwest 150 173 12,000  Level Memphis Center
12:56PM 36.3347 -91.2717 218° Southwest 156 180 12,000  Level Memphis Center
12:57PM 36.3114 -91.3100 233° Southwest 150 173 12,100  Climbing Memphis Center
12:58PM 36.3047 -91.3561 260° West 141 162 12,000  Descending Memphis Center
12:59PM 36.3003 -91.4050 264° West 141 162 12,100  Climbing Memphis Center
01:00PM 36.2872 -91.4511 251° West 141 162 12,100 -60 Level Memphis Center
01:01PM 36.2828 -91.4975 263° West 141 162 12,000 -60 Descending Memphis Center
01:02PM 36.2719 -91.5411 253° West 141 162 12,000  Level Memphis Center
01:03PM 36.2694 -91.5850 266° West 141 162 12,000  Level Memphis Center
01:04PM 36.2689 -91.6286 269° West 141 162 12,100  Climbing Memphis Center
01:05PM 36.2747 -91.6750 279° West 141 162 12,000  Descending Memphis Center
01:06PM 36.2994 -91.7039 317° Northwest 130 150 12,100  Climbing Memphis Center
01:07PM 36.3242 -91.7378 312° West 124 143 12,100  Level Memphis Center
01:08PM 36.3339 -91.7894 283° West 129 148 12,100 -120 Level Memphis Center
01:09PM 36.3167 -91.8328 244° Southwest 129 148 11,900 -300 Descending Memphis Center
01:10PM 36.3014 -91.8839 250° West 141 162 11,500 -360 Descending Memphis Center
01:11PM 36.2883 -91.9328 252° West 147 169 11,200 -300 Descending Memphis Center
01:12PM 36.2775 -91.9814 255° West 147 169 11,000 -240 Descending Memphis Center
01:13PM 36.2642 -92.0300 251° West 147 169 10,800 -240 Descending Memphis Center
01:14PM 36.2531 -92.0761 253° West 147 169 10,600 -300 Descending Memphis Center
01:15PM 36.2400 -92.1247 252° West 147 169 10,300 -300 Descending Memphis Center
01:16PM 36.2308 -92.1733 257° West 147 169 10,100 -120 Descending Memphis Center
01:17PM 36.2200 -92.2169 253° West 147 169 10,100  Level Memphis Center
01:18PM 36.1942 -92.2550 230° Southwest 147 169 10,100  Level Memphis Center
01:19PM 36.1667 -92.2903 226° Southwest 147 169 10,100  Level Memphis Center
01:20PM 36.1411 -92.3231 226° Southwest 147 169 10,100  Level Memphis Center
01:21PM 36.1156 -92.3586 228° Southwest 142 163 10,100  Level Memphis Center
01:22PM 36.0878 -92.3939 226° Southwest 137 158 10,100  Level Memphis Center
01:23PM 36.0622 -92.4292 228° Southwest 137 158 10,100 180 Level Memphis Center
01:24PM 36.0389 -92.4567 224° Southwest 137 158 10,500 300 Climbing Memphis Center
01:25PM 36.0175 -92.4894 231° Southwest 127 146 10,800 180 Climbing Memphis Center
01:26PM 35.9919 -92.5172 221° Southwest 127 146 10,900  Climbing Memphis Center
01:27PM 35.9642 -92.5522 226° Southwest 132 152 10,800 -300 Descending Memphis Center
01:28PM 35.9386 -92.5925 232° Southwest 143 165 10,400 -360 Descending Memphis Center
01:29PM 35.9086 -92.6278 224° Southwest 143 165 10,100 -180 Descending Memphis Center
01:30PM 35.8808 -92.6628 226° Southwest 149 171 10,100  Level Memphis Center
01:31PM 35.8575 -92.6956 229° Southwest 149 171 10,100  Level Memphis Center
01:32PM 35.8317 -92.7306 228° Southwest 144 166 10,100  Level Memphis Center
01:33PM 35.8039 -92.7631 224° Southwest 144 166 10,100  Level Memphis Center
01:34PM 35.7803 -92.7956 228° Southwest 144 166 10,100  Level Memphis Center
01:35PM 35.7547 -92.8281 226° Southwest 139 160 10,100  Level Memphis Center
01:36PM 35.7292 -92.8606 226° Southwest 139 160 10,100  Level Memphis Center
01:37PM 35.6892 -92.8697 191° South 139 160 10,100  Level Memphis Center
01:38PM 35.6494 -92.8761 187° South 139 160 10,100  Level Memphis Center
01:39PM 35.6097 -92.8850 190° South 146 168 10,100  Level Memphis Center
01:40PM 35.5700 -92.8917 188° South 146 168 10,100  Level Memphis Center
01:41PM 35.5300 -92.9006 190° South 146 168 10,100  Level Memphis Center
01:42PM 35.4903 -92.9069 187° South 146 168 10,100  Level Memphis Center
01:43PM 35.4506 -92.9133 187° South 146 168 10,100  Level Memphis Center
01:44PM 35.4108 -92.9225 191° South 146 168 10,100  Level Memphis Center
01:45PM 35.3711 -92.9289 187° South 146 168 10,100  Level Memphis Center
01:46PM 35.3375 -92.9353 189° South 146 168 10,100  Level Memphis Center
01:47PM 35.2978 -92.9419 188° South 146 168 10,100  Level Memphis Center
01:48PM 35.2581 -92.9483 187° South 146 168 10,100  Level Memphis Center
01:49PM 35.2203 -92.9572 191° South 146 168 10,100  Level Memphis Center
01:50PM 35.1825 -92.9636 188° South 146 168 10,100  Level Memphis Center
01:51PM 35.1447 -92.9778 197° South 146 168 10,100  Level Memphis Center
01:52PM 35.1211 -93.0150 232° Southwest 136 157 10,100  Level Memphis Center
01:53PM 35.0972 -93.0525 232° Southwest 136 157 10,100  Level Memphis Center
01:54PM 35.0733 -93.0922 234° Southwest 147 169 10,100  Level Memphis Center
01:55PM 35.0497 -93.1294 232° Southwest 147 169 10,100  Level Memphis Center
01:56PM 35.0239 -93.1667 230° Southwest 147 169 10,100  Level Memphis Center
01:57PM 34.9978 -93.2064 231° Southwest 147 169 10,100  Level Memphis Center
01:58PM 34.9742 -93.2436 232° Southwest 147 169 10,100  Level Memphis Center
01:59PM 34.9503 -93.2808 232° Southwest 147 169 10,100  Level Memphis Center
02:00PM 34.9264 -93.3206 234° Southwest 147 169 10,100 -60 Level Memphis Center
02:01PM 34.9006 -93.3575 230° Southwest 147 169 10,000 -60 Descending Memphis Center
02:02PM 34.8767 -93.3947 232° Southwest 147 169 10,000  Level Memphis Center
02:03PM 34.8506 -93.4342 231° Southwest 147 169 10,000  Level Memphis Center
02:04PM 34.8267 -93.4739 234° Southwest 147 169 10,000  Level Memphis Center
02:05PM 34.8006 -93.5133 231° Southwest 147 169 10,000  Level Memphis Center
02:06PM 34.7747 -93.5503 230° Southwest 147 169 10,000  Level Memphis Center
02:07PM 34.7508 -93.5872 232° Southwest 147 169 10,000  Level Memphis Center
02:08PM 34.7247 -93.6267 231° Southwest 147 169 10,000  Level Memphis Center
02:09PM 34.6986 -93.6636 229° Southwest 147 169 10,000  Level Memphis Center
02:10PM 34.6767 -93.7033 236° Southwest 147 169 10,000  Level Memphis Center
02:11PM 34.6508 -93.7400 229° Southwest 147 169 10,000  Level Memphis Center
02:12PM 34.6247 -93.7794 231° Southwest 147 169 10,000  Level Memphis Center
02:13PM 34.6006 -93.8189 233° Southwest 147 169 10,000  Level Memphis Center
02:15PM 34.5558 -93.8911 233° Southwest 152 175 10,100  Climbing Fort Worth Center
02:16PM 34.5297 -93.9275 229° Southwest 152 175 10,100  Level Fort Worth Center
02:17PM 34.5039 -93.9689 233° Southwest 152 175 10,100  Level Fort Worth Center
02:18PM 34.4797 -94.0050 231° Southwest 152 175 10,100  Level Fort Worth Center
02:19PM 34.4578 -94.0386 232° Southwest 152 175 10,100  Level Fort Worth Center
02:20PM 34.4336 -94.0775 233° Southwest 147 169 10,100  Level Fort Worth Center
02:21PM 34.4075 -94.1111 227° Southwest 147 169 10,100  Level Fort Worth Center
02:22PM 34.3833 -94.1472 231° Southwest 147 169 10,100  Level Fort Worth Center
02:23PM 34.3572 -94.1886 233° Southwest 147 169 10,100  Level Fort Worth Center
02:24PM 34.3331 -94.2219 229° Southwest 147 169 10,100 -60 Level Fort Worth Center
02:25PM 34.3092 -94.2608 233° Southwest 147 169 10,000 -60 Descending Fort Worth Center
02:26PM 34.2850 -94.2967 231° Southwest 147 169 10,000  Level Fort Worth Center
02:27PM 34.2608 -94.3328 231° Southwest 147 169 10,000  Level Fort Worth Center
02:28PM 34.2367 -94.3714 233° Southwest 142 163 10,000  Level Fort Worth Center
02:29PM 34.2125 -94.4075 231° Southwest 142 163 10,000  Level Fort Worth Center
02:30PM 34.1861 -94.4433 228° Southwest 142 163 10,000  Level Fort Worth Center
02:31PM 34.1622 -94.4819 233° Southwest 142 163 10,000  Level Fort Worth Center
02:32PM 34.1400 -94.5153 231° Southwest 147 169 10,000  Level Fort Worth Center
02:33PM 34.1136 -94.5539 230° Southwest 147 169 10,000  Level Fort Worth Center
02:34PM 34.0894 -94.5897 231° Southwest 147 169 10,000  Level Fort Worth Center
02:35PM 34.0653 -94.6256 231° Southwest 147 169 10,000  Level Fort Worth Center
02:36PM 34.0411 -94.6639 233° Southwest 147 169 10,000  Level Fort Worth Center
02:37PM 34.0147 -94.6972 226° Southwest 142 163 10,000  Level Fort Worth Center
02:38PM 33.9903 -94.7356 232° Southwest 142 163 10,000  Level Fort Worth Center
02:39PM 33.9661 -94.7739 233° Southwest 142 163 10,000  Level Fort Worth Center
02:40PM 33.9419 -94.8097 231° Southwest 142 163 10,000  Level Fort Worth Center
02:41PM 33.9156 -94.8456 228° Southwest 142 163 10,000  Level Fort Worth Center
02:42PM 33.8892 -94.8864 232° Southwest 147 169 10,000  Level Fort Worth Center
02:43PM 33.8650 -94.9222 231° Southwest 147 169 10,000  Level Fort Worth Center
02:44PM 33.8386 -94.9603 230° Southwest 152 175 10,000  Level Fort Worth Center
02:45PM 33.8122 -94.9986 230° Southwest 152 175 10,000  Level Fort Worth Center
02:46PM 33.7856 -95.0344 228° Southwest 152 175 10,000  Level Fort Worth Center
02:47PM 33.7592 -95.0725 230° Southwest 157 181 10,000  Level Fort Worth Center
02:48PM 33.7350 -95.1106 233° Southwest 157 181 10,000  Level Fort Worth Center
02:49PM 33.7106 -95.1486 232° Southwest 157 181 10,000  Level Fort Worth Center
02:50PM 33.6861 -95.1842 230° Southwest 152 175 10,000  Level Fort Worth Center
02:51PM 33.6597 -95.2200 229° Southwest 152 175 10,000  Level Fort Worth Center
02:52PM 33.6353 -95.2606 234° Southwest 152 175 10,000  Level Fort Worth Center
02:53PM 33.6086 -95.2936 226° Southwest 152 175 10,000  Level Fort Worth Center
02:54PM 33.5803 -95.3342 230° Southwest 159 183 10,000  Level Fort Worth Center
02:55PM 33.5558 -95.3694 230° Southwest 159 183 10,000 -120 Level Fort Worth Center
02:56PM 33.5314 -95.4075 232° Southwest 154 177 9,800 -300 Descending Fort Worth Center
02:57PM 33.5028 -95.4481 230° Southwest 160 184 9,500 -240 Descending Fort Worth Center
02:58PM 33.4761 -95.4883 232° Southwest 160 184 9,400 -180 Descending Fort Worth Center
02:59PM 33.4475 -95.5289 230° Southwest 160 184 9,200 -240 Descending Fort Worth Center
03:00PM 33.4189 -95.5694 230° Southwest 160 184 9,000 -180 Descending Fort Worth Center
03:01PM 33.3944 -95.6122 236° Southwest 160 184 8,900 -180 Descending Fort Worth Center
03:02PM 33.3617 -95.6550 227° Southwest 160 184 8,700 -180 Descending Fort Worth Center
03:03PM 33.3392 -95.6903 233° Southwest 160 184 8,600 -180 Descending Fort Worth Center
03:04PM 33.3086 -95.7356 231° Southwest 160 184 8,400 -180 Descending Fort Worth Center
03:05PM 33.2839 -95.7708 230° Southwest 160 184 8,300 -120 Descending Fort Worth Center
03:06PM 33.2533 -95.8136 230° Southwest 160 184 8,200 -180 Descending Fort Worth Center
03:07PM 33.2286 -95.8489 230° Southwest 160 184 8,000 -300 Descending Fort Worth Center
03:08PM 33.1978 -95.8942 231° Southwest 160 184 7,700 -300 Descending Fort Worth Center
03:09PM 33.1733 -95.9317 232° Southwest 160 184 7,400 -300 Descending Fort Worth Center
03:10PM 33.1444 -95.9744 231° Southwest 160 184 7,100 -240 Descending Fort Worth Center
03:11PM 33.1242 -96.0169 240° Southwest 160 184 7,000 -180 Descending Fort Worth Center
03:12PM 33.0975 -96.0619 235° Southwest 160 184 6,800 -240 Descending Fort Worth Center
03:13PM 33.0769 -96.1019 238° Southwest 160 184 6,600 -240 Descending Fort Worth Center
03:14PM 33.0525 -96.1469 237° Southwest 155 178 6,400 -180 Descending Fort Worth Center
03:15PM 33.0342 -96.1894 243° Southwest 155 178 6,300 -180 Descending Fort Worth Center
03:16PM 33.0094 -96.2367 238° Southwest 155 178 6,100 -180 Descending Fort Worth Center
03:17PM 32.9911 -96.2742 240° Southwest 161 185 6,000 -300 Descending Fort Worth Center
03:18PM 32.9686 -96.3239 242° Southwest 161 185 5,600 -360 Descending Fort Worth Center
03:19PM 32.9500 -96.3639 241° Southwest 161 185 5,300 -480 Descending Fort Worth Center
03:20PM 32.9256 -96.4111 238° Southwest 161 185 4,700 -600 Descending Fort Worth Center
03:21PM 32.9069 -96.4458 237° Southwest 156 180 4,100 -660 Descending Fort Worth Center
03:22PM 32.8864 -96.4906 241° Southwest 151 174 3,400 -480 Descending Fort Worth Center
03:23PM 32.8617 -96.5306 234° Southwest 151 174 3,200 -240 Descending Fort Worth Center